Time;durP1;ratioP1;P1;durP2;ratioP2;P2;SDS_P1;SDS_P2;PMS_P1;PMS_P2;Temp;Humidity;BMP_temperature;BMP_pressure;BME280_temperature;BME280_humidity;BME280_pressure;Samples;Min_cycle;Max_cycle;Signal;HPM_P1;HPM_P2
2022/10/28 00:02:19;;;;;;;5.90;3.83;;;16.90;78.20;;;;;;2374676;56;21022;-58
2022/10/28 00:04:47;;;;;;;9.98;4.70;;;16.90;78.20;;;;;;2629208;52;21031;-58
2022/10/28 00:07:14;;;;;;;8.55;4.65;;;16.90;78.10;;;;;;2374426;56;21150;-58
2022/10/28 00:09:41;;;;;;;7.43;3.97;;;16.90;78.20;;;;;;2374555;56;21047;-58
2022/10/28 00:12:09;;;;;;;7.10;3.97;;;16.90;78.10;;;;;;2375816;56;21031;-58
2022/10/28 00:14:36;;;;;;;8.98;4.25;;;16.90;78.20;;;;;;2374649;56;21031;-58
2022/10/28 00:17:03;;;;;;;8.93;3.67;;;16.90;78.20;;;;;;2374455;56;21170;-58
2022/10/28 00:19:31;;;;;;;6.78;3.90;;;16.90;78.40;;;;;;2374510;56;21043;-57
2022/10/28 00:21:58;;;;;;;8.13;3.92;;;16.90;78.30;;;;;;2375458;56;21051;-58
2022/10/28 00:24:25;;;;;;;9.50;4.40;;;16.90;78.40;;;;;;2375588;56;21054;-58
2022/10/28 00:26:53;;;;;;;7.03;4.30;;;16.90;78.50;;;;;;2375425;56;21491;-58
2022/10/28 00:29:20;;;;;;;9.75;4.50;;;16.90;78.50;;;;;;2591591;52;21579;-55
2022/10/28 00:31:47;;;;;;;9.57;5.07;;;16.90;78.60;;;;;;2324740;58;21504;-55
2022/10/28 00:34:17;;;;;;;9.15;3.80;;;16.90;78.70;;;;;;2323286;58;21036;-57
2022/10/28 00:36:46;;;;;;;8.20;3.70;;;16.90;78.70;;;;;;2323692;58;21064;-55
2022/10/28 00:39:15;;;;;;;6.28;3.62;;;16.90;78.60;;;;;;2324630;58;21064;-56
2022/10/28 00:41:44;;;;;;;8.00;4.10;;;16.90;78.60;;;;;;2325056;58;21052;-56
2022/10/28 00:47:27;;;;;;;6.03;4.55;;;16.90;78.70;;;;;;2319914;57;22186;-57
2022/10/28 00:49:57;;;;;;;6.68;4.07;;;17.00;78.40;;;;;;2320842;58;21127;-57
2022/10/28 00:52:28;;;;;;;7.00;4.18;;;16.90;78.40;;;;;;2320262;58;21044;-55
2022/10/28 00:54:58;;;;;;;7.12;4.43;;;16.90;78.40;;;;;;2360841;54;21154;-57
2022/10/28 00:57:30;;;;;;;7.45;4.35;;;17.00;78.50;;;;;;2320647;58;21066;-56
2022/10/28 00:59:59;;;;;;;5.95;4.10;;;16.90;78.40;;;;;;2330783;54;21095;-59
2022/10/28 01:02:27;;;;;;;7.93;4.62;;;16.90;78.40;;;;;;2321390;58;21148;-58
2022/10/28 01:04:55;;;;;;;9.90;3.92;;;16.90;78.40;;;;;;2320317;58;21033;-58
2022/10/28 01:09:57;;;;;;;9.70;4.67;;;16.90;78.20;;;;;;2337594;57;27808;-56
2022/10/28 01:12:34;;;;;;;11.43;4.82;;;16.60;80.70;;;;;;2347801;57;21115;-58
2022/10/28 01:15:08;;;;;;;6.22;4.03;;;16.80;79.90;;;;;;2348534;57;21049;-59
2022/10/28 01:17:49;;;;;;;6.82;3.97;;;16.90;79.10;;;;;;2383912;53;21027;-55
2022/10/28 01:20:54;;;;;;;6.25;4.12;;;16.90;78.70;;;;;;2376411;56;21035;-56
2022/10/28 01:26:29;;;;;;;6.62;4.00;;;16.90;78.50;;;;;;2370648;54;22094;-57
2022/10/28 01:29:25;;;;;;;10.50;3.70;;;16.90;78.40;;;;;;2298053;54;21149;-57
2022/10/28 01:31:56;;;;;;;5.28;3.80;;;16.90;78.50;;;;;;2267182;59;21094;-57
2022/10/28 01:34:30;;;;;;;8.80;4.28;;;16.90;78.40;;;;;;2267122;59;21128;-57
2022/10/28 01:37:08;;;;;;;6.20;3.87;;;16.90;78.60;;;;;;2266378;59;21093;-57
2022/10/28 01:39:44;;;;;;;9.80;4.45;;;16.90;78.70;;;;;;2266113;59;21137;-58
2022/10/28 01:42:20;;;;;;;8.32;4.20;;;16.90;78.70;;;;;;2299110;55;21065;-58
2022/10/28 01:44:52;;;;;;;6.30;3.72;;;16.90;78.70;;;;;;2266957;59;21053;-58
2022/10/28 01:47:25;;;;;;;11.02;4.47;;;16.90;78.70;;;;;;2266513;59;21081;-57
2022/10/28 01:49:55;;;;;;;8.63;4.28;;;16.80;78.60;;;;;;2279438;55;21371;-58
2022/10/28 01:52:27;;;;;;;11.35;4.55;;;16.90;78.70;;;;;;2267661;59;21049;-57
2022/10/28 01:55:02;;;;;;;8.45;4.50;;;16.80;79.30;;;;;;2267199;59;21526;-57
2022/10/28 01:57:33;;;;;;;9.43;3.92;;;16.80;78.60;;;;;;2266949;59;21049;-57
2022/10/28 02:00:00;;;;;;;8.98;4.53;;;16.80;78.50;;;;;;2266645;59;21037;-57
2022/10/28 02:02:32;;;;;;;7.40;4.57;;;16.80;78.40;;;;;;2289122;55;21097;-57
2022/10/28 02:05:34;;;;;;;12.00;4.70;;;16.80;78.40;;;;;;2267663;59;21112;-58
2022/10/28 02:10:48;;;;;;;11.73;4.25;;;16.80;78.50;;;;;;2359514;53;22042;-56
2022/10/28 02:13:17;;;;;;;3.90;3.12;;;16.80;78.60;;;;;;2349225;57;21037;-56
2022/10/28 02:15:50;;;;;;;6.53;3.90;;;16.80;78.50;;;;;;2349341;57;21136;-56
2022/10/28 02:18:26;;;;;;;8.25;4.12;;;16.80;78.50;;;;;;2374865;56;21118;-55
2022/10/28 02:20:57;;;;;;;6.78;4.00;;;16.80;78.50;;;;;;2376818;56;21039;-55
2022/10/28 02:23:40;;;;;;;6.25;4.15;;;16.80;78.50;;;;;;2376487;56;21027;-56
2022/10/28 02:26:15;;;;;;;7.75;4.30;;;16.80;78.60;;;;;;2500442;52;21026;-57
2022/10/28 02:28:50;;;;;;;8.95;4.30;;;16.80;78.50;;;;;;2376297;56;21047;-57
2022/10/28 02:31:23;;;;;;;8.63;4.78;;;16.70;78.50;;;;;;2376763;56;21022;-58
2022/10/28 02:33:53;;;;;;;;;;;16.70;78.60;;;;;;2438799;52;21018;-58
2022/10/28 02:36:23;;;;;;;5.07;3.75;;;16.90;78.60;;;;;;2376921;56;20113;-55
2022/10/28 02:38:55;;;;;;;6.97;3.92;;;16.70;78.60;;;;;;2377235;56;21035;-58
2022/10/28 02:41:28;;;;;;;9.65;4.60;;;16.70;78.50;;;;;;2376158;56;21066;-58
2022/10/28 02:44:01;;;;;;;7.07;4.62;;;16.60;78.60;;;;;;2375400;56;21122;-58
2022/10/28 02:46:32;;;;;;;4.55;4.03;;;16.70;78.60;;;;;;2376637;56;21031;-58
2022/10/28 02:49:05;;;;;;;6.82;4.62;;;16.70;78.50;;;;;;2376398;56;21043;-56
2022/10/28 02:51:36;;;;;;;6.30;3.80;;;16.70;78.50;;;;;;2376939;56;21011;-57
2022/10/28 02:54:09;;;;;;;6.87;4.37;;;16.70;78.30;;;;;;2384633;52;21031;-58
2022/10/28 02:56:40;;;;;;;9.60;4.70;;;16.60;78.20;;;;;;2376356;56;21110;-55
2022/10/28 02:59:10;;;;;;;5.90;4.40;;;16.60;78.10;;;;;;2373408;56;21067;-57
2022/10/28 03:01:37;;;;;;;10.98;4.35;;;16.60;78.10;;;;;;2375597;56;21046;-57
2022/10/28 03:04:07;;;;;;;10.50;4.82;;;16.60;78.10;;;;;;2375375;56;21011;-57
2022/10/28 03:06:34;;;;;;;9.77;4.32;;;16.60;77.90;;;;;;2376658;56;21575;-55
2022/10/28 03:09:01;;;;;;;5.57;4.22;;;16.50;77.80;;;;;;2376566;56;21954;-57
2022/10/28 03:11:28;;;;;;;7.10;4.45;;;16.50;77.80;;;;;;2376483;56;21031;-58
2022/10/28 03:13:56;;;;;;;7.55;4.68;;;16.50;77.50;;;;;;2392416;52;21382;-58
2022/10/28 03:16:25;;;;;;;7.78;4.75;;;16.50;77.40;;;;;;2375510;56;21070;-58
2022/10/28 03:18:52;;;;;;;9.18;4.35;;;16.50;77.40;;;;;;2375605;56;21059;-56
2022/10/28 03:21:19;;;;;;;8.80;4.37;;;16.40;77.40;;;;;;2375904;56;21030;-58
2022/10/28 03:23:47;;;;;;;7.82;4.62;;;16.40;77.30;;;;;;2374750;56;21127;-57
2022/10/28 03:26:14;;;;;;;7.78;4.37;;;16.40;77.20;;;;;;2374434;56;21039;-57
2022/10/28 03:28:41;;;;;;;7.07;4.60;;;16.40;77.20;;;;;;2375404;56;21051;-57
2022/10/28 03:31:09;;;;;;;7.37;4.53;;;16.30;77.10;;;;;;2374937;56;21094;-57
2022/10/28 03:33:36;;;;;;;7.70;4.40;;;16.30;77.10;;;;;;2512743;52;21122;-58
2022/10/28 03:38:40;;;;;;;8.57;4.78;;;16.30;77.20;;;;;;2329509;57;22064;-56
2022/10/28 03:41:07;;;;;;;8.73;4.82;;;16.30;77.40;;;;;;2347166;57;21034;-58
2022/10/28 03:43:34;;;;;;;9.90;4.87;;;16.20;77.60;;;;;;2346913;57;21073;-58
2022/10/28 03:46:01;;;;;;;7.60;4.95;;;16.30;77.90;;;;;;2346926;57;21042;-55
2022/10/28 03:48:28;;;;;;;7.90;4.85;;;16.20;78.10;;;;;;2319536;58;21520;-58
2022/10/28 03:50:56;;;;;;;6.87;4.03;;;16.20;78.40;;;;;;2319443;58;21052;-57
2022/10/28 03:53:23;;;;;;;9.65;4.87;;;16.20;78.50;;;;;;2351655;54;21028;-58
2022/10/28 03:55:54;;;;;;;8.98;4.80;;;16.20;78.70;;;;;;2320134;58;21080;-57
2022/10/28 03:58:21;;;;;;;12.18;5.10;;;16.20;78.90;;;;;;2318835;58;21043;-58
2022/10/28 04:00:49;;;;;;;7.10;4.40;;;16.20;79.00;;;;;;2319014;58;21083;-58
2022/10/28 04:03:17;;;;;;;10.43;4.75;;;16.20;79.20;;;;;;2321119;58;21116;-58
2022/10/28 04:05:47;;;;;;;9.38;4.85;;;16.30;79.40;;;;;;2319084;58;21056;-58
2022/10/28 04:08:14;;;;;;;9.45;5.18;;;16.30;79.50;;;;;;2356721;54;21111;-58
2022/10/28 04:10:42;;;;;;;7.68;5.03;;;16.30;79.50;;;;;;2320888;58;21110;-59
2022/10/28 04:13:11;;;;;;;8.68;4.78;;;16.30;79.50;;;;;;2338213;54;21079;-59
2022/10/28 04:15:39;;;;;;;7.18;4.32;;;16.30;79.50;;;;;;2325137;54;21044;-57
2022/10/28 04:18:06;;;;;;;8.07;4.55;;;16.30;79.50;;;;;;2319660;58;21044;-58
2022/10/28 04:20:35;;;;;;;8.20;5.03;;;16.40;79.50;;;;;;2348097;54;21032;-58
2022/10/28 04:25:38;;;;;;;10.25;5.43;;;16.40;79.50;;;;;;2366336;53;22137;-56
2022/10/28 04:30:42;;;;;;;8.57;4.78;;;16.40;79.50;;;;;;2355723;57;22018;-57
2022/10/28 04:33:12;;;;;;;12.13;5.30;;;16.40;79.50;;;;;;2401505;53;21117;-58
2022/10/28 04:35:41;;;;;;;8.48;4.82;;;16.40;79.60;;;;;;2347976;57;21105;-58
2022/10/28 04:38:08;;;;;;;8.50;5.00;;;16.40;79.60;;;;;;2370221;56;21713;-58
2022/10/28 04:40:36;;;;;;;6.60;4.75;;;16.50;79.70;;;;;;2375456;56;21130;-58
2022/10/28 04:43:03;;;;;;;8.13;4.35;;;16.50;79.60;;;;;;2374813;56;21093;-58
2022/10/28 04:45:32;;;;;;;7.45;4.18;;;16.50;79.60;;;;;;2376110;56;21504;-58
2022/10/28 04:48:00;;;;;;;10.35;5.12;;;16.50;79.60;;;;;;2375854;56;21579;-58
2022/10/28 04:50:27;;;;;;;10.10;4.90;;;16.50;79.60;;;;;;2376265;56;21035;-58
2022/10/28 04:52:55;;;;;;;8.55;4.72;;;16.50;79.50;;;;;;2376083;56;21503;-58
2022/10/28 04:55:22;;;;;;;10.27;4.80;;;16.50;79.50;;;;;;2375127;56;21115;-57
2022/10/28 05:00:32;;;;;;;10.35;4.97;;;16.50;79.50;;;;;;2367653;53;22086;-56
2022/10/28 05:03:02;;;;;;;14.98;5.07;;;16.60;79.30;;;;;;2347152;57;21021;-57
2022/10/28 05:05:29;;;;;;;8.48;4.57;;;16.60;79.40;;;;;;2348950;57;21382;-58
2022/10/28 05:10:33;;;;;;;8.10;4.60;;;16.60;79.40;;;;;;2300570;58;22138;-57
2022/10/28 05:13:00;;;;;;;7.85;5.05;;;16.60;79.30;;;;;;2292272;58;21126;-57
2022/10/28 05:15:27;;;;;;;9.93;4.47;;;16.60;79.30;;;;;;2292898;58;21059;-54
2022/10/28 05:17:54;;;;;;;9.07;5.12;;;16.60;79.30;;;;;;2312138;58;21538;-57
2022/10/28 05:20:22;;;;;;;6.85;4.85;;;16.60;79.40;;;;;;2318655;58;21061;-59
2022/10/28 05:22:52;;;;;;;9.82;4.78;;;16.60;79.30;;;;;;2319228;58;21045;-58
2022/10/28 05:25:20;;;;;;;10.45;5.45;;;16.60;79.30;;;;;;2332698;54;21203;-57
2022/10/28 05:27:48;;;;;;;7.18;4.82;;;16.60;79.30;;;;;;2318857;58;21067;-58
2022/10/28 05:30:15;;;;;;;8.55;4.53;;;16.60;79.30;;;;;;2319084;58;21056;-58
2022/10/28 05:32:43;;;;;;;11.52;5.05;;;16.60;79.00;;;;;;2319231;58;21105;-56
2022/10/28 05:35:11;;;;;;;9.40;4.90;;;16.60;79.10;;;;;;2316636;58;23627;-58
2022/10/28 05:37:38;;;;;;;10.63;5.20;;;16.60;79.10;;;;;;2318881;58;21042;-58
2022/10/28 05:40:08;;;;;;;10.52;4.80;;;16.60;79.10;;;;;;2319050;58;21057;-57
2022/10/28 05:42:41;;;;;;;6.50;3.95;;;16.60;79.10;;;;;;2318831;58;21052;-57
2022/10/28 05:45:10;;;;;;;7.70;4.77;;;16.60;79.20;;;;;;2319042;58;21119;-56
2022/10/28 05:47:43;;;;;;;10.93;4.55;;;16.60;79.10;;;;;;2319187;58;21060;-58
2022/10/28 05:50:11;;;;;;;7.05;4.72;;;16.60;79.10;;;;;;2318696;58;21056;-58
2022/10/28 05:55:18;;;;;;;7.28;4.37;;;16.60;79.10;;;;;;2323316;54;22124;-57
2022/10/28 05:57:46;;;;;;;9.60;4.90;;;16.60;79.10;;;;;;2319649;55;21089;-56
2022/10/28 06:00:15;;;;;;;8.80;5.00;;;16.60;79.00;;;;;;2319517;58;21038;-56
2022/10/28 06:02:42;;;;;;;8.55;4.47;;;16.60;79.00;;;;;;2319948;58;21050;-56
2022/10/28 06:05:10;;;;;;;11.38;4.65;;;16.60;79.00;;;;;;2320095;58;21526;-57
2022/10/28 06:07:39;;;;;;;9.05;4.70;;;16.60;78.90;;;;;;2319567;58;21054;-56
2022/10/28 06:10:10;;;;;;;9.50;5.12;;;16.60;78.80;;;;;;2356067;54;21061;-56
2022/10/28 06:12:37;;;;;;;8.32;4.62;;;16.50;78.60;;;;;;2319581;58;21057;-56
2022/10/28 06:17:48;;;;;;;8.15;4.97;;;16.50;78.50;;;;;;2319457;58;22178;-57
2022/10/28 06:20:17;;;;;;;8.65;4.57;;;16.50;78.20;;;;;;2460876;54;21067;-58
2022/10/28 06:22:49;;;;;;;8.98;4.57;;;16.50;78.20;;;;;;2319156;58;21088;-58
2022/10/28 06:25:16;;;;;;;7.65;4.78;;;16.50;78.20;;;;;;2317407;58;21098;-58
2022/10/28 06:27:44;;;;;;;11.43;4.50;;;16.50;78.20;;;;;;2336941;54;21078;-56
2022/10/28 06:30:13;;;;;;;10.18;4.75;;;16.50;78.20;;;;;;2469903;54;21104;-58
2022/10/28 06:32:41;;;;;;;7.60;4.28;;;16.40;78.10;;;;;;2562297;54;21105;-57
2022/10/28 06:35:08;;;;;;;8.77;5.28;;;16.40;78.20;;;;;;2320175;58;21579;-57
2022/10/28 06:37:35;;;;;;;8.30;4.43;;;16.40;78.30;;;;;;2319364;58;21108;-58
2022/10/28 06:42:40;;;;;;;10.73;5.15;;;16.40;78.40;;;;;;2356041;57;22066;-58
2022/10/28 06:45:09;;;;;;;7.18;4.72;;;16.40;78.50;;;;;;2347830;57;21564;-58
2022/10/28 06:47:36;;;;;;;16.83;5.53;;;16.40;78.60;;;;;;2364685;56;21122;-58
2022/10/28 06:52:39;;;;;;;14.98;6.60;;;16.40;78.70;;;;;;2281746;58;27911;-57
2022/10/28 06:55:07;;;;;;;12.15;5.18;;;16.20;81.40;;;;;;2318446;58;21088;-58
2022/10/28 06:57:35;;;;;;;12.48;5.18;;;16.30;80.90;;;;;;2335139;57;21067;-58
2022/10/28 07:00:02;;;;;;;9.00;5.32;;;16.40;80.20;;;;;;2346818;57;21572;-58
2022/10/28 07:02:30;;;;;;;9.05;4.85;;;16.50;80.10;;;;;;2347663;57;21071;-57
2022/10/28 07:04:57;;;;;;;7.62;4.45;;;16.50;80.00;;;;;;2594807;53;21043;-57
2022/10/28 07:07:24;;;;;;;8.48;4.70;;;16.50;79.90;;;;;;2345698;57;21043;-58
2022/10/28 07:09:52;;;;;;;10.23;4.47;;;16.50;79.80;;;;;;2344848;57;21047;-57
2022/10/28 07:12:19;;;;;;;12.70;5.15;;;16.50;79.70;;;;;;2344162;57;21059;-58
2022/10/28 07:14:46;;;;;;;12.13;5.47;;;16.50;79.50;;;;;;2593182;53;21027;-58
2022/10/28 07:17:14;;;;;;;7.68;4.75;;;16.50;79.40;;;;;;2345566;57;21036;-58
2022/10/28 07:19:41;;;;;;;8.93;4.62;;;16.50;79.40;;;;;;2346302;57;21035;-57
2022/10/28 07:22:08;;;;;;;12.70;5.43;;;16.50;79.40;;;;;;2345043;57;21599;-57
2022/10/28 07:24:35;;;;;;;8.80;5.25;;;16.60;79.40;;;;;;2346161;57;21107;-58
2022/10/28 07:27:03;;;;;;;9.45;5.03;;;16.60;79.30;;;;;;2590822;53;21126;-58
2022/10/28 07:29:30;;;;;;;10.93;5.28;;;16.60;79.30;;;;;;2345355;57;21071;-57
2022/10/28 07:31:58;;;;;;;11.02;5.28;;;16.50;79.20;;;;;;2345157;57;21031;-57
2022/10/28 07:34:25;;;;;;;13.85;5.43;;;16.60;79.30;;;;;;2590769;53;21031;-57
2022/10/28 07:36:54;;;;;;;9.45;4.80;;;16.60;79.30;;;;;;2345389;57;21421;-58
2022/10/28 07:39:21;;;;;;;9.43;5.05;;;16.60;79.40;;;;;;2343762;57;21438;-58
2022/10/28 07:41:49;;;;;;;9.98;6.25;;;16.60;79.40;;;;;;2346010;57;21119;-58
2022/10/28 07:44:16;;;;;;;14.90;5.72;;;16.50;79.40;;;;;;2344127;57;21052;-58
2022/10/28 07:46:44;;;;;;;10.82;5.55;;;16.60;79.50;;;;;;2592653;53;21034;-58
2022/10/28 07:49:11;;;;;;;14.80;5.55;;;16.60;79.70;;;;;;2344656;57;21087;-58
2022/10/28 07:51:38;;;;;;;10.77;5.05;;;16.60;79.90;;;;;;2338554;57;21032;-57
2022/10/28 07:54:06;;;;;;;11.12;5.53;;;16.60;80.10;;;;;;2328739;57;21039;-58
2022/10/28 07:56:33;;;;;;;8.55;5.00;;;16.60;80.20;;;;;;2328640;57;21556;-58
2022/10/28 08:01:36;;;;;;;10.15;5.53;;;16.60;80.40;;;;;;2337097;57;28202;-57
2022/10/28 08:06:41;;;;;;;10.57;5.10;;;16.60;81.70;;;;;;2293974;58;22160;-58
2022/10/28 08:09:09;;;;;;;9.45;4.80;;;16.70;81.00;;;;;;2290071;58;21083;-59
2022/10/28 08:11:36;;;;;;;10.43;5.37;;;16.70;80.50;;;;;;2290081;58;21110;-59
2022/10/28 08:16:39;;;;;;;8.15;4.80;;;16.80;81.20;;;;;;2342978;56;27901;-57
2022/10/28 08:19:06;;;;;;;7.28;4.50;;;16.70;82.40;;;;;;2628395;52;21169;-57
2022/10/28 08:21:33;;;;;;;10.93;4.50;;;16.80;81.60;;;;;;2375268;56;21031;-57
2022/10/28 08:24:01;;;;;;;9.77;4.40;;;16.90;81.10;;;;;;2372899;56;21110;-58
2022/10/28 08:26:29;;;;;;;9.23;5.05;;;16.90;80.70;;;;;;2374759;56;21054;-58
2022/10/28 08:28:57;;;;;;;10.50;5.68;;;17.00;80.60;;;;;;2369914;56;21078;-57
2022/10/28 08:31:24;;;;;;;8.77;4.95;;;17.00;80.40;;;;;;2626990;52;21059;-58
2022/10/28 08:33:52;;;;;;;9.70;4.43;;;17.00;80.40;;;;;;2374391;56;21054;-57
2022/10/28 08:36:19;;;;;;;9.68;4.60;;;17.00;80.40;;;;;;2372801;56;21055;-57
2022/10/28 08:38:47;;;;;;;7.37;4.18;;;17.10;80.40;;;;;;2374584;56;21043;-58
2022/10/28 08:41:26;;;;;;;12.23;4.87;;;17.10;80.40;;;;;;2374202;56;21035;-57
2022/10/28 08:44:31;;;;;;;9.05;5.03;;;17.00;80.30;;;;;;2373669;56;21039;-58
2022/10/28 08:47:13;;;;;;;9.60;5.30;;;17.10;80.00;;;;;;2318948;56;21042;-57
2022/10/28 08:52:23;;;;;;;13.70;5.97;;;17.20;80.00;;;;;;2334926;57;27770;-58
2022/10/28 08:54:55;;;;;;;14.43;6.10;;;17.10;82.20;;;;;;2347369;57;21485;-58
2022/10/28 09:00:05;;;;;;;11.45;4.85;;;17.30;80.80;;;;;;2355132;57;22065;-58
2022/10/28 09:02:46;;;;;;;12.50;4.78;;;17.40;80.70;;;;;;2345880;57;21085;-58
2022/10/28 09:05:20;;;;;;;11.95;4.90;;;17.40;80.50;;;;;;2346597;57;21037;-58
2022/10/28 09:07:48;;;;;;;11.98;5.18;;;17.40;80.30;;;;;;2620731;52;21050;-58
2022/10/28 09:10:17;;;;;;;9.75;5.30;;;17.50;80.30;;;;;;2375912;56;21058;-58
2022/10/28 09:12:53;;;;;;;6.25;4.00;;;17.50;80.10;;;;;;2376360;56;21107;-57
2022/10/28 09:15:31;;;;;;;8.65;4.47;;;17.50;79.90;;;;;;2630665;52;21023;-58
2022/10/28 09:18:05;;;;;;;16.77;4.37;;;17.50;80.00;;;;;;2376505;56;21038;-58
2022/10/28 09:20:42;;;;;;;13.25;4.60;;;17.60;80.10;;;;;;2376836;56;21058;-58
2022/10/28 09:23:20;;;;;;;10.32;4.35;;;17.60;80.10;;;;;;2376905;56;21103;-58
2022/10/28 09:26:02;;;;;;;7.90;4.03;;;17.60;80.00;;;;;;2376150;56;21049;-58
2022/10/28 09:28:45;;;;;;;10.75;5.28;;;17.70;80.10;;;;;;2376917;56;21215;-57
2022/10/28 09:31:18;;;;;;;9.02;3.80;;;17.80;79.90;;;;;;2376557;56;21527;-58
2022/10/28 09:34:01;;;;;;;9.77;4.78;;;17.80;79.80;;;;;;2376682;56;21137;-58
2022/10/28 09:36:34;;;;;;;9.90;4.25;;;17.80;79.90;;;;;;2376726;56;21039;-58
2022/10/28 09:39:02;;;;;;;12.65;4.32;;;17.80;79.40;;;;;;2377077;56;21046;-58
2022/10/28 09:41:33;;;;;;;9.27;4.03;;;17.90;79.20;;;;;;2376762;56;21087;-58
2022/10/28 09:44:10;;;;;;;8.25;4.12;;;17.90;79.20;;;;;;2631152;52;21019;-58
2022/10/28 09:46:39;;;;;;;13.27;4.30;;;17.90;79.00;;;;;;2375642;56;21079;-58
2022/10/28 09:49:13;;;;;;;8.35;3.85;;;18.00;78.70;;;;;;2376489;56;21050;-58
2022/10/28 09:51:49;;;;;;;11.18;3.62;;;18.10;78.50;;;;;;2375390;56;21023;-58
2022/10/28 09:54:18;;;;;;;17.62;4.18;;;18.10;78.40;;;;;;2376396;56;21022;-58
2022/10/28 09:56:46;;;;;;;8.52;4.12;;;18.10;78.20;;;;;;2629714;52;21043;-58
2022/10/28 09:59:15;;;;;;;9.68;3.75;;;18.20;78.30;;;;;;2376585;56;21579;-58
2022/10/28 10:01:46;;;;;;;7.35;3.75;;;18.20;78.00;;;;;;2376703;56;21074;-58
2022/10/28 10:04:19;;;;;;;5.10;3.37;;;18.30;77.60;;;;;;2376208;56;21027;-58
2022/10/28 10:06:50;;;;;;;13.48;3.90;;;18.40;77.40;;;;;;2376141;56;21034;-58
2022/10/28 10:09:23;;;;;;;6.00;3.20;;;18.40;77.30;;;;;;2376234;56;21475;-58
2022/10/28 10:11:54;;;;;;;9.60;4.00;;;18.50;77.30;;;;;;2376104;56;21043;-58
2022/10/28 10:14:29;;;;;;;8.95;3.80;;;18.50;77.00;;;;;;2374812;56;21479;-58
2022/10/28 10:17:00;;;;;;;13.90;3.58;;;18.60;76.80;;;;;;2375095;56;21567;-58
2022/10/28 10:19:29;;;;;;;13.00;4.12;;;18.60;76.50;;;;;;2375478;56;21062;-58
2022/10/28 10:21:56;;;;;;;8.85;3.50;;;18.60;76.40;;;;;;2375915;56;21027;-58
2022/10/28 10:24:34;;;;;;;8.60;3.90;;;18.70;76.10;;;;;;2627188;52;21027;-58
2022/10/28 10:27:12;;;;;;;7.15;3.65;;;18.80;76.10;;;;;;2375111;56;21158;-58
2022/10/28 10:29:45;;;;;;;12.30;4.43;;;18.80;75.60;;;;;;2375510;56;21036;-59
2022/10/28 10:32:19;;;;;;;8.15;4.05;;;18.90;75.30;;;;;;2375829;56;21110;-58
2022/10/28 10:34:52;;;;;;;10.43;3.60;;;19.00;75.20;;;;;;2375212;56;21047;-58
2022/10/28 10:37:21;;;;;;;13.73;3.75;;;19.00;75.20;;;;;;2628485;52;21098;-58
2022/10/28 10:40:02;;;;;;;10.70;3.30;;;19.10;75.10;;;;;;2375726;56;21102;-58
2022/10/28 10:42:29;;;;;;;9.00;3.70;;;19.10;75.10;;;;;;2375141;56;21522;-58
2022/10/28 10:47:35;;;;;;;12.65;3.70;;;19.20;74.80;;;;;;2284559;58;22104;-58
2022/10/28 10:50:27;;;;;;;8.15;3.37;;;19.30;74.60;;;;;;2529003;55;21042;-58
2022/10/28 10:52:57;;;;;;;9.70;3.47;;;19.40;74.40;;;;;;2529188;54;21067;-60
2022/10/28 10:55:31;;;;;;;7.07;3.50;;;19.40;74.10;;;;;;2293503;58;21043;-60
2022/10/28 10:57:59;;;;;;;12.27;3.78;;;19.50;74.10;;;;;;2292115;58;21131;-61
2022/10/28 11:00:33;;;;;;;17.20;3.83;;;19.50;74.00;;;;;;2293552;58;21544;-59
2022/10/28 11:03:01;;;;;;;9.07;3.35;;;19.60;73.80;;;;;;2528835;55;21044;-59
2022/10/28 11:05:29;;;;;;;7.35;3.22;;;19.70;73.50;;;;;;2293258;58;21050;-60
2022/10/28 11:07:58;;;;;;;8.82;3.28;;;19.70;73.50;;;;;;2292921;58;21092;-59
2022/10/28 11:10:28;;;;;;;13.35;4.12;;;19.80;73.70;;;;;;2529070;54;21043;-59
2022/10/28 11:12:57;;;;;;;6.65;3.53;;;19.90;73.40;;;;;;2293779;58;21111;-59
2022/10/28 11:15:27;;;;;;;6.80;3.00;;;19.90;73.30;;;;;;2291516;58;21075;-59
2022/10/28 11:17:57;;;;;;;7.87;3.03;;;20.00;73.00;;;;;;2292317;58;21103;-59
2022/10/28 11:23:27;;;;;;;8.52;3.53;;;20.20;72.70;;;;;;2357414;57;22093;-58
2022/10/28 11:25:57;;;;;;;10.32;4.05;;;20.20;72.60;;;;;;2596128;52;21029;-59
2022/10/28 11:28:42;;;;;;;10.48;3.90;;;20.30;72.50;;;;;;2375320;56;21031;-59
2022/10/28 11:31:36;;;;;;;11.88;3.83;;;20.30;72.40;;;;;;2376810;56;21106;-60
2022/10/28 11:34:19;;;;;;;8.75;3.60;;;20.40;72.00;;;;;;2375793;56;21099;-60
2022/10/28 11:36:57;;;;;;;13.43;4.07;;;20.50;72.00;;;;;;2376339;56;21039;-60
2022/10/28 11:39:29;;;;;;;13.30;4.10;;;20.50;71.80;;;;;;2630251;52;21492;-60
2022/10/28 11:42:08;;;;;;;8.27;4.00;;;20.60;71.80;;;;;;2376768;56;21043;-60
2022/10/28 11:44:45;;;;;;;9.18;3.67;;;20.70;72.10;;;;;;2376559;56;21146;-60
2022/10/28 11:47:32;;;;;;;11.25;4.07;;;20.70;71.60;;;;;;2630346;52;21051;-60
2022/10/28 11:50:23;;;;;;;9.57;3.42;;;20.80;70.80;;;;;;2376141;56;21019;-60
2022/10/28 11:53:05;;;;;;;9.32;4.10;;;20.90;70.70;;;;;;2376791;56;21035;-59
2022/10/28 11:55:38;;;;;;;5.30;2.33;;;20.90;70.80;;;;;;2375850;56;21113;-59
2022/10/28 11:58:18;;;;;;;11.02;3.72;;;21.00;69.90;;;;;;2376647;56;21043;-59
2022/10/28 12:00:57;;;;;;;6.85;3.42;;;21.10;70.00;;;;;;2375900;56;21101;-59
2022/10/28 12:03:49;;;;;;;11.82;4.35;;;21.20;70.40;;;;;;2375434;56;21086;-59
2022/10/28 12:06:27;;;;;;;11.15;3.85;;;21.20;69.90;;;;;;2376004;56;21094;-59
2022/10/28 12:09:22;;;;;;;11.85;3.45;;;21.30;70.00;;;;;;2630675;52;21071;-59
2022/10/28 12:12:05;;;;;;;8.20;3.97;;;21.40;69.70;;;;;;2376207;56;21078;-60
2022/10/28 12:14:41;;;;;;;9.77;3.40;;;21.50;69.40;;;;;;2376550;56;21098;-60
2022/10/28 12:17:15;;;;;;;10.48;3.10;;;21.50;68.90;;;;;;2374859;56;21157;-59
2022/10/28 12:19:46;;;;;;;7.18;3.83;;;21.50;69.00;;;;;;2376447;56;21118;-59
2022/10/28 12:22:21;;;;;;;8.57;3.28;;;21.60;68.90;;;;;;2376637;56;21032;-59
2022/10/28 12:24:50;;;;;;;9.75;2.97;;;21.60;68.80;;;;;;2375756;56;21028;-58
2022/10/28 12:27:25;;;;;;;5.95;2.92;;;21.60;68.40;;;;;;2376532;56;21028;-59
2022/10/28 12:29:58;;;;;;;10.50;3.53;;;21.70;68.70;;;;;;2629955;52;21093;-59
2022/10/28 12:32:28;;;;;;;8.63;3.30;;;21.80;68.70;;;;;;2375856;56;21026;-58
2022/10/28 12:35:02;;;;;;;14.50;3.55;;;21.90;68.20;;;;;;2375211;56;21153;-59
2022/10/28 12:37:36;;;;;;;15.55;3.80;;;21.90;67.80;;;;;;2629018;52;21022;-59
2022/10/28 12:40:12;;;;;;;7.68;3.15;;;22.00;67.60;;;;;;2375987;56;21031;-59
2022/10/28 12:42:44;;;;;;;11.25;2.90;;;22.10;67.30;;;;;;2629251;52;21090;-58
2022/10/28 12:45:16;;;;;;;10.10;3.92;;;22.10;66.80;;;;;;2375775;56;21052;-59
2022/10/28 12:47:48;;;;;;;8.70;3.25;;;22.10;66.20;;;;;;2375118;56;21039;-59
2022/10/28 12:50:25;;;;;;;9.85;3.00;;;22.10;66.10;;;;;;2628856;52;21027;-59
2022/10/28 12:53:15;;;;;;;15.13;3.47;;;22.10;65.50;;;;;;2375828;56;21077;-58
2022/10/28 12:55:47;;;;;;;6.85;2.87;;;22.10;65.20;;;;;;2375460;56;21123;-59
2022/10/28 12:58:19;;;;;;;9.10;3.63;;;22.10;65.70;;;;;;2375215;56;21019;-59
2022/10/28 13:00:51;;;;;;;11.73;3.75;;;22.10;65.80;;;;;;2375648;56;21035;-59
2022/10/28 13:03:18;;;;;;;11.23;3.33;;;22.10;65.50;;;;;;2629039;52;21066;-59
2022/10/28 13:05:53;;;;;;;11.60;3.45;;;22.10;65.50;;;;;;2375475;56;21103;-59
2022/10/28 13:11:51;;;;;;;13.18;3.85;;;22.10;65.90;;;;;;2357514;57;22050;-59
2022/10/28 13:14:49;;;;;;;12.57;3.90;;;22.10;66.00;;;;;;2596593;52;21105;-60
2022/10/28 13:17:29;;;;;;;9.20;3.20;;;22.10;65.80;;;;;;2362308;56;21039;-61
2022/10/28 13:20:18;;;;;;;10.20;3.28;;;22.10;66.10;;;;;;2376826;56;21027;-60
2022/10/28 13:23:11;;;;;;;6.75;3.30;;;22.10;66.60;;;;;;2376720;56;21026;-60
2022/10/28 13:28:45;;;;;;;13.50;3.47;;;22.10;66.40;;;;;;2357616;57;22066;-58
2022/10/28 13:31:14;;;;;;;8.27;3.28;;;22.20;66.00;;;;;;2597127;53;21030;-58
2022/10/28 13:33:51;;;;;;;8.65;3.50;;;22.20;65.80;;;;;;2349721;57;21030;-58
2022/10/28 13:36:20;;;;;;;11.55;3.62;;;22.10;65.60;;;;;;2351059;56;21073;-58
2022/10/28 13:41:35;;;;;;;8.95;3.62;;;22.20;65.70;;;;;;2357963;57;21987;-58
2022/10/28 13:44:24;;;;;;;15.90;3.72;;;22.20;65.80;;;;;;2597539;53;21033;-59
2022/10/28 13:47:24;;;;;;;11.93;4.25;;;22.20;65.60;;;;;;2358308;56;21027;-58
2022/10/28 13:50:41;;;;;;;12.88;3.70;;;22.20;65.60;;;;;;2376808;56;21087;-59
2022/10/28 13:53:55;;;;;;;14.25;3.87;;;22.20;65.40;;;;;;2293349;56;21449;-58
2022/10/28 13:59:41;;;;;;;10.30;3.28;;;22.10;65.70;;;;;;2357113;57;22026;-58
2022/10/28 14:02:26;;;;;;;12.68;3.40;;;22.20;65.80;;;;;;2596832;53;21081;-58
2022/10/28 14:04:58;;;;;;;13.80;3.28;;;22.20;66.50;;;;;;2348902;57;21037;-59
2022/10/28 14:07:30;;;;;;;11.40;3.25;;;22.20;65.90;;;;;;2364793;56;21106;-59
2022/10/28 14:10:14;;;;;;;15.50;3.53;;;22.20;65.80;;;;;;2375973;56;21082;-59
2022/10/28 14:12:43;;;;;;;16.70;3.42;;;22.20;66.00;;;;;;2375579;56;21297;-59
2022/10/28 14:15:24;;;;;;;9.73;3.30;;;22.20;66.10;;;;;;2630217;52;21024;-60